Sedov — UELO — position and weather

sailwx.info

Track history (hours):
 
Tides and Currents Weather Stations Pressure Air Temp Water Temp Dewpoint Dewpoint Depression Visibility Wind Speed Wind Dir Waves Ship Positions

Sedov (Russia)

Last reported at 2015-Apr-01 13:05 UTC. Time now 2015-Apr-01 16:33 UTC.
Position N 57°37' E 010°40'.

; draft 6.3 m.

Type: Sailing vessel. MMSI: 273510000.

Date/timePositionNaut miles runAvg speedWind from/ knotsBaromVisibWave heightAir tempDewpointWater temp
2015-Apr-01 13:05N 57°37' E 010°40'0 0.0
2015-Apr-01 12:23N 57°37' E 010°40'0 0.0
2015-Apr-01 11:26N 57°37' E 010°40'0 0.0
2015-Apr-01 09:20N 57°37' E 010°40'0 0.0
2015-Apr-01 08:26N 57°37' E 010°40'0 0.0
2015-Apr-01 07:17N 57°37' E 010°40'0 0.0
2015-Apr-01 06:20N 57°37' E 010°40'0 0.0
2015-Apr-01 04:08N 57°37' E 010°40'0 0.0
2015-Mar-31 23:20N 57°37' E 010°40'0 0.0
2015-Mar-31 22:14N 57°37' E 010°40'0 0.0
2015-Mar-31 21:20N 57°37' E 010°40'0 0.0
2015-Mar-31 20:23N 57°37' E 010°40'0 0.0
2015-Mar-31 19:17N 57°37' E 010°40'0 0.0
2015-Mar-31 17:29N 57°37' E 010°40'0 0.0
2015-Mar-31 16:26N 57°37' E 010°40'0 0.0
2015-Mar-31 15:11N 57°37' E 010°40'0 0.0
2015-Mar-31 14:32N 57°37' E 010°40'0 0.0
2015-Mar-31 12:26N 57°37' E 010°40'0 0.0
2015-Mar-31 11:26N 57°37' E 010°40'0 0.0
2015-Mar-31 10:32N 57°37' E 010°40'0 0.0
2015-Mar-31 09:32N 57°37' E 010°40'0 0.0
2015-Mar-31 08:32N 57°37' E 010°40'0 0.0
2015-Mar-31 07:14N 57°37' E 010°40'0 0.0
2015-Mar-31 05:20N 57°37' E 010°40'0 0.0
2015-Mar-31 04:20N 57°37' E 010°40'0 0.0
2015-Mar-31 03:29N 57°37' E 010°40'0 0.1
2015-Mar-31 02:26N 57°37' E 010°40'0 0.0
2015-Mar-30 19:20N 57°37' E 010°40'0 0.0
2015-Mar-30 18:26N 57°37' E 010°40'0 0.0
2015-Mar-30 17:32N 57°37' E 010°40'0 0.1
2015-Mar-30 16:14N 57°37' E 010°40'0 0.0
2015-Mar-30 15:23N 57°37' E 010°40'0 0.1
2015-Mar-30 14:08N 57°37' E 010°40'0 0.0
2015-Mar-30 06:23N 57°37' E 010°40'0 0.0
2015-Mar-30 05:20N 57°37' E 010°40'0 0.0
2015-Mar-30 04:17N 57°37' E 010°40'0 0.1
2015-Mar-30 03:05N 57°37' E 010°40'0 0.0
2015-Mar-30 02:26N 57°37' E 010°40'0 0.0
2015-Mar-30 01:17N 57°37' E 010°40'0 0.0
2015-Mar-30 00:26N 57°37' E 010°40'0 0.0
2015-Mar-29 23:29N 57°37' E 010°40'0 0.0
2015-Mar-29 22:32N 57°37' E 010°40'0 0.0
2015-Mar-29 21:14N 57°37' E 010°40'0 0.0
2015-Mar-29 20:14N 57°37' E 010°40'0 0.0
2015-Mar-29 19:05N 57°37' E 010°40'0 0.0
2015-Mar-29 18:32N 57°37' E 010°40'0 0.0
2015-Mar-29 17:32N 57°37' E 010°40'0 0.0
2015-Mar-29 16:32N 57°37' E 010°40'0 0.0
2015-Mar-29 15:32N 57°37' E 010°40'0 0.0
2015-Mar-29 14:32N 57°37' E 010°40'0 0.0
2015-Mar-29 13:20N 57°37' E 010°40'0 0.0
2015-Mar-29 11:32N 57°37' E 010°40'0 0.0
2015-Mar-29 10:32N 57°37' E 010°40'0 0.0
2015-Mar-29 09:29N 57°37' E 010°40'1 0.6
2015-Mar-29 08:32N 57°37' E 010°41'8 8.6
2015-Mar-29 07:33N 57°34' E 010°56'8 8.5
2015-Mar-29 06:33N 57°31' E 011°11'8 8.1
2015-Mar-29 05:33N 57°29' E 011°25'8 8.0
2015-Mar-29 04:33N 57°22' E 011°32'8 7.7
2015-Mar-29 03:33N 57°15' E 011°37'7 7.1
2015-Mar-29 02:32N 57°08' E 011°41'9 8.8
2015-Mar-29 01:33N 56°60' E 011°46'1010.4
2015-Mar-29 00:33N 56°50' E 011°52'1010.4
2015-Mar-28 23:33N 56°40' E 011°48'123 9.4
2015-Mar-28 10:29N 54°40' E 011°00'8 8.7
2015-Mar-28 09:33N 54°36' E 011°13'9 8.7
2015-Mar-28 08:33N 54°32' E 011°26'9 8.5
2015-Mar-28 07:33N 54°29' E 011°40'8 8.3
2015-Mar-28 06:33N 54°27' E 011°53'8 8.1
2015-Mar-28 05:33N 54°27' E 012°07'8 8.3
2015-Mar-28 04:33N 54°34' E 012°13'9 8.6
2015-Mar-28 03:33N 54°41' E 012°24'9 8.8
2015-Mar-28 02:33N 54°46' E 012°36'8 8.0
2015-Mar-28 01:33N 54°47' E 012°50'8 8.5
2015-Mar-28 00:33N 54°47' E 013°04'9 8.5
2015-Mar-27 23:33N 54°47' E 013°19'9 9.0
2015-Mar-27 22:33N 54°47' E 013°35'9 8.7
2015-Mar-27 21:33N 54°44' E 013°49'8 8.5
2015-Mar-27 20:33N 54°42' E 014°03'7 7.2
2015-Mar-27 19:33N 54°40' E 014°15'10 8.6
2015-Mar-27 18:26N 54°39' E 014°32'120 8.6
2015-Mar-27 04:32N 55°00' E 017°56'7 7.2
2015-Mar-27 03:32N 55°02' E 018°08'6 6.5
2015-Mar-27 02:33N 55°01' E 018°19'8 8.0
2015-Mar-27 01:34N 54°59' E 018°32'8 8.1
2015-Mar-27 00:33N 54°57' E 018°46'9 8.8
2015-Mar-26 23:33N 54°55' E 019°01'9 9.1
2015-Mar-26 22:33N 54°53' E 019°16'10 9.6
2015-Mar-26 21:33N 54°47' E 019°30'10 9.9
2015-Mar-26 20:33N 54°42' E 019°45'  
Track history (hours):
 
Tides and Currents Weather Stations Pressure Air Temp Water Temp Dewpoint Dewpoint Depression Visibility Wind Speed Wind Dir Waves Ship Positions

Sedov (Russia)

Last reported at 2015-Apr-01 13:05 UTC. Time now 2015-Apr-01 16:33 UTC.
Position N 57°37' E 010°40'.

; draft 6.3 m.

Type: Sailing vessel. MMSI: 273510000.

Date/timePositionNaut miles runAvg speedWind from/ knotsBaromVisibWave heightAir tempDewpointWater temp
2015-Apr-01 13:05N 57°37' E 010°40'0 0.0
2015-Apr-01 12:23N 57°37' E 010°40'0 0.0
2015-Apr-01 11:26N 57°37' E 010°40'0 0.0
2015-Apr-01 09:20N 57°37' E 010°40'0 0.0
2015-Apr-01 08:26N 57°37' E 010°40'0 0.0
2015-Apr-01 07:17N 57°37' E 010°40'0 0.0
2015-Apr-01 06:20N 57°37' E 010°40'0 0.0
2015-Apr-01 04:08N 57°37' E 010°40'0 0.0
2015-Mar-31 23:20N 57°37' E 010°40'0 0.0
2015-Mar-31 22:14N 57°37' E 010°40'0 0.0
2015-Mar-31 21:20N 57°37' E 010°40'0 0.0
2015-Mar-31 20:23N 57°37' E 010°40'0 0.0
2015-Mar-31 19:17N 57°37' E 010°40'0 0.0
2015-Mar-31 17:29N 57°37' E 010°40'0 0.0
2015-Mar-31 16:26N 57°37' E 010°40'0 0.0
2015-Mar-31 15:11N 57°37' E 010°40'0 0.0
2015-Mar-31 14:32N 57°37' E 010°40'0 0.0
2015-Mar-31 12:26N 57°37' E 010°40'0 0.0
2015-Mar-31 11:26N 57°37' E 010°40'0 0.0
2015-Mar-31 10:32N 57°37' E 010°40'0 0.0
2015-Mar-31 09:32N 57°37' E 010°40'0 0.0
2015-Mar-31 08:32N 57°37' E 010°40'0 0.0
2015-Mar-31 07:14N 57°37' E 010°40'0 0.0
2015-Mar-31 05:20N 57°37' E 010°40'0 0.0
2015-Mar-31 04:20N 57°37' E 010°40'0 0.0
2015-Mar-31 03:29N 57°37' E 010°40'0 0.1
2015-Mar-31 02:26N 57°37' E 010°40'0 0.0
2015-Mar-30 19:20N 57°37' E 010°40'0 0.0
2015-Mar-30 18:26N 57°37' E 010°40'0 0.0
2015-Mar-30 17:32N 57°37' E 010°40'0 0.1
2015-Mar-30 16:14N 57°37' E 010°40'0 0.0
2015-Mar-30 15:23N 57°37' E 010°40'0 0.1
2015-Mar-30 14:08N 57°37' E 010°40'0 0.0
2015-Mar-30 06:23N 57°37' E 010°40'0 0.0
2015-Mar-30 05:20N 57°37' E 010°40'0 0.0
2015-Mar-30 04:17N 57°37' E 010°40'0 0.1
2015-Mar-30 03:05N 57°37' E 010°40'0 0.0
2015-Mar-30 02:26N 57°37' E 010°40'0 0.0
2015-Mar-30 01:17N 57°37' E 010°40'0 0.0
2015-Mar-30 00:26N 57°37' E 010°40'0 0.0
2015-Mar-29 23:29N 57°37' E 010°40'0 0.0
2015-Mar-29 22:32N 57°37' E 010°40'0 0.0
2015-Mar-29 21:14N 57°37' E 010°40'0 0.0
2015-Mar-29 20:14N 57°37' E 010°40'0 0.0
2015-Mar-29 19:05N 57°37' E 010°40'0 0.0
2015-Mar-29 18:32N 57°37' E 010°40'0 0.0
2015-Mar-29 17:32N 57°37' E 010°40'0 0.0
2015-Mar-29 16:32N 57°37' E 010°40'0 0.0
2015-Mar-29 15:32N 57°37' E 010°40'0 0.0
2015-Mar-29 14:32N 57°37' E 010°40'0 0.0
2015-Mar-29 13:20N 57°37' E 010°40'0 0.0
2015-Mar-29 11:32N 57°37' E 010°40'0 0.0
2015-Mar-29 10:32N 57°37' E 010°40'0 0.0
2015-Mar-29 09:29N 57°37' E 010°40'1 0.6
2015-Mar-29 08:32N 57°37' E 010°41'8 8.6
2015-Mar-29 07:33N 57°34' E 010°56'8 8.5
2015-Mar-29 06:33N 57°31' E 011°11'8 8.1
2015-Mar-29 05:33N 57°29' E 011°25'8 8.0
2015-Mar-29 04:33N 57°22' E 011°32'8 7.7
2015-Mar-29 03:33N 57°15' E 011°37'7 7.1
2015-Mar-29 02:32N 57°08' E 011°41'9 8.8
2015-Mar-29 01:33N 56°60' E 011°46'1010.4
2015-Mar-29 00:33N 56°50' E 011°52'1010.4
2015-Mar-28 23:33N 56°40' E 011°48'123 9.4
2015-Mar-28 10:29N 54°40' E 011°00'8 8.7
2015-Mar-28 09:33N 54°36' E 011°13'9 8.7
2015-Mar-28 08:33N 54°32' E 011°26'9 8.5
2015-Mar-28 07:33N 54°29' E 011°40'8 8.3
2015-Mar-28 06:33N 54°27' E 011°53'8 8.1
2015-Mar-28 05:33N 54°27' E 012°07'8 8.3
2015-Mar-28 04:33N 54°34' E 012°13'9 8.6
2015-Mar-28 03:33N 54°41' E 012°24'9 8.8
2015-Mar-28 02:33N 54°46' E 012°36'8 8.0
2015-Mar-28 01:33N 54°47' E 012°50'8 8.5
2015-Mar-28 00:33N 54°47' E 013°04'9 8.5
2015-Mar-27 23:33N 54°47' E 013°19'9 9.0
2015-Mar-27 22:33N 54°47' E 013°35'9 8.7
2015-Mar-27 21:33N 54°44' E 013°49'8 8.5
2015-Mar-27 20:33N 54°42' E 014°03'7 7.2
2015-Mar-27 19:33N 54°40' E 014°15'10 8.6
2015-Mar-27 18:26N 54°39' E 014°32'120 8.6
2015-Mar-27 04:32N 55°00' E 017°56'7 7.2
2015-Mar-27 03:32N 55°02' E 018°08'6 6.5
2015-Mar-27 02:33N 55°01' E 018°19'8 8.0
2015-Mar-27 01:34N 54°59' E 018°32'8 8.1
2015-Mar-27 00:33N 54°57' E 018°46'9 8.8
2015-Mar-26 23:33N 54°55' E 019°01'9 9.1
2015-Mar-26 22:33N 54°53' E 019°16'10 9.6
2015-Mar-26 21:33N 54°47' E 019°30'10 9.9
2015-Mar-26 20:33N 54°42' E 019°45'  

Dump ship's entire track history